Terminal Aerodrome Forecast
Issued by NWS Northern Indiana

Home | Current Version | Previous Version | Graphics & Text | Print | Product List | Glossary On
Versions: 1 2 3 4 5 6 7 8 9 10 11 12 13 14
000
FTUS43 KIWX 242300
TAFFWA
TAF
KFWA 242320Z 2500/2524 24018G25KT P6SM BKN050
      TEMPO 2500/2502 5SM -SHSN BKN035
     FM250500 27012KT P6SM SKC
     FM251000 31005KT P6SM SKC
     FM251400 VRB02KT P6SM BKN100=

USA.gov is the U.S. government's official web portal to all federal, state and local government web resources and services.